Time;durP1;ratioP1;P1;durP2;ratioP2;P2;SDS_P1;SDS_P2;PMS_P1;PMS_P2;Temp;Humidity;BMP_temperature;BMP_pressure;BME280_temperature;BME280_humidity;BME280_pressure;Samples;Min_cycle;Max_cycle;Signal;HPM_P1;HPM_P2
2023/09/11 00:01:18;;;;;;;20.80;18.90;;;;;;;16.21;100.00;99032.83;109592;1250;61071;-68
2023/09/11 00:03:45;;;;;;;21.60;19.50;;;;;;;16.19;100.00;99028.73;109613;1250;64096;-69
2023/09/11 00:06:12;;;;;;;20.00;18.20;;;;;;;16.17;100.00;99028.70;109644;1250;58967;-69
2023/09/11 00:08:38;;;;;;;21.40;19.40;;;;;;;16.14;100.00;99028.95;109717;1250;59021;-69
2023/09/11 00:11:05;;;;;;;21.90;20.00;;;;;;;16.12;100.00;99025.61;109628;1250;64710;-69
2023/09/11 00:13:32;;;;;;;22.40;20.40;;;;;;;16.10;100.00;99027.00;109630;1250;59297;-69
2023/09/11 00:15:58;;;;;;;23.60;21.40;;;;;;;16.07;100.00;99029.40;109616;1250;63851;-69
2023/09/11 00:18:25;;;;;;;21.30;19.30;;;;;;;16.06;100.00;99025.77;109399;1251;59119;-69
2023/09/11 00:20:52;;;;;;;21.60;19.60;;;;;;;16.06;100.00;99026.19;109595;1250;59058;-69
2023/09/11 00:23:18;;;;;;;22.80;20.60;;;;;;;16.03;100.00;99024.23;109415;1251;66168;-69
2023/09/11 00:25:45;;;;;;;21.00;19.10;;;;;;;16.00;100.00;99021.23;109671;1250;59029;-69
2023/09/11 00:28:12;;;;;;;21.00;19.10;;;;;;;15.98;100.00;99017.15;109609;1250;64115;-69
2023/09/11 00:30:38;;;;;;;22.60;20.30;;;;;;;15.96;100.00;99016.27;109600;1250;59132;-69
2023/09/11 00:33:05;;;;;;;21.00;18.90;;;;;;;15.93;100.00;99008.43;109696;1250;59075;-69
2023/09/11 00:35:32;;;;;;;20.20;18.20;;;;;;;15.90;100.00;99005.29;109662;1250;64833;-69
2023/09/11 00:37:58;;;;;;;21.00;19.10;;;;;;;15.87;100.00;99008.09;109658;1250;60175;-69
2023/09/11 00:40:25;;;;;;;18.80;17.20;;;;;;;15.84;100.00;99012.66;109611;1250;64148;-69
2023/09/11 00:42:52;;;;;;;21.90;20.00;;;;;;;15.81;100.00;99013.67;109634;1250;58944;-69
2023/09/11 00:45:18;;;;;;;20.90;19.10;;;;;;;15.78;100.00;99010.17;109645;1250;58903;-69
2023/09/11 00:47:46;;;;;;;21.00;19.00;;;;;;;15.75;100.00;99008.23;109665;1250;59486;-69
2023/09/11 00:50:15;;;;;;;21.60;19.80;;;;;;;15.72;100.00;99006.96;109663;1250;60142;-69
2023/09/11 00:52:42;;;;;;;20.60;18.60;;;;;;;15.69;100.00;99008.09;109414;1251;64068;-69
2023/09/11 00:55:09;;;;;;;22.00;19.70;;;;;;;15.67;100.00;99006.99;109623;1250;59410;-69
2023/09/11 00:57:36;;;;;;;22.00;19.80;;;;;;;15.65;100.00;99011.27;109637;1250;58969;-69
2023/09/11 01:00:06;;;;;;;21.70;19.50;;;;;;;15.62;100.00;99008.86;109395;1250;64821;-68
2023/09/11 01:02:33;;;;;;;20.10;18.30;;;;;;;15.60;100.00;99008.48;109335;1250;60111;-69
2023/09/11 01:05:00;;;;;;;20.00;18.20;;;;;;;15.57;100.00;99007.63;109601;1250;64025;-69
2023/09/11 01:07:26;;;;;;;20.90;18.80;;;;;;;15.55;100.00;99009.44;109614;1250;58974;-69
2023/09/11 01:09:53;;;;;;;20.70;18.70;;;;;;;15.52;100.00;99007.34;109626;1250;59010;-69
2023/09/11 01:12:19;;;;;;;21.40;19.50;;;;;;;15.50;100.00;99005.36;109635;1250;66091;-69
2023/09/11 01:14:46;;;;;;;19.90;17.70;;;;;;;15.48;100.00;99002.41;109605;1250;59019;-69
2023/09/11 01:17:34;;;;;;;19.30;17.70;;;;;;;15.45;100.00;99000.65;109407;1251;64078;-69
2023/09/11 01:20:22;;;;;;;20.70;18.60;;;;;;;15.43;100.00;99000.16;109607;1250;58976;-69
2023/09/11 01:23:16;;;;;;;21.30;19.20;;;;;;;15.40;100.00;98997.36;109669;1250;58838;-68
2023/09/11 01:26:00;;;;;;;21.20;19.20;;;;;;;15.36;100.00;98996.74;109636;1250;64808;-68
2023/09/11 01:28:54;;;;;;;23.90;21.80;;;;;;;15.31;100.00;98994.88;109693;1250;58949;-69
2023/09/11 01:31:23;;;;;;;24.20;22.10;;;;;;;15.26;100.00;98992.44;109628;1250;64014;-68
2023/09/11 01:33:53;;;;;;;24.10;21.80;;;;;;;15.23;100.00;98995.04;109617;1250;59136;-69
2023/09/11 01:36:20;;;;;;;22.90;20.80;;;;;;;15.20;100.00;98994.93;109647;1250;59007;-69
2023/09/11 01:38:47;;;;;;;22.60;20.30;;;;;;;15.18;100.00;98995.51;109601;1250;66032;-69
2023/09/11 01:41:16;;;;;;;22.80;20.70;;;;;;;15.14;100.00;98995.94;109659;1250;59853;-69
2023/09/11 01:43:45;;;;;;;22.50;20.40;;;;;;;15.12;100.00;98992.92;109593;1250;64041;-69
2023/09/11 01:46:12;;;;;;;22.30;20.30;;;;;;;15.11;100.00;98996.08;109584;1250;59007;-69
2023/09/11 01:48:42;;;;;;;21.80;19.50;;;;;;;15.10;100.00;98992.23;109599;1250;58988;-69
2023/09/11 01:51:10;;;;;;;20.60;18.70;;;;;;;15.09;100.00;98989.49;109313;1251;66065;-69
2023/09/11 01:53:37;;;;;;;21.50;19.40;;;;;;;15.06;100.00;98989.15;109603;1250;59121;-69
2023/09/11 01:56:04;;;;;;;20.90;19.10;;;;;;;15.04;100.00;98993.63;109585;1250;64046;-69
2023/09/11 01:58:32;;;;;;;21.70;19.70;;;;;;;15.02;100.00;98992.38;109523;1251;59002;-69
2023/09/11 02:00:58;;;;;;;21.70;19.50;;;;;;;15.00;100.00;98994.35;109583;1251;58965;-69
2023/09/11 02:03:25;;;;;;;21.10;19.00;;;;;;;14.96;100.00;98995.71;109611;1250;59484;-69
2023/09/11 02:05:51;;;;;;;22.20;20.20;;;;;;;14.93;100.00;98991.34;109596;1250;59187;-69
2023/09/11 02:08:18;;;;;;;21.70;19.70;;;;;;;14.91;100.00;98989.55;109403;1250;59030;-69
2023/09/11 02:10:44;;;;;;;21.60;19.60;;;;;;;14.88;100.00;98990.90;109577;1250;58930;-69
2023/09/11 02:13:10;;;;;;;22.80;20.80;;;;;;;14.84;100.00;98987.61;109579;1250;59025;-69
2023/09/11 02:15:37;;;;;;;22.90;20.70;;;;;;;14.81;100.00;98988.24;109584;1250;59304;-68
2023/09/11 02:18:04;;;;;;;22.20;20.20;;;;;;;14.78;100.00;98990.65;109428;1250;59032;-69
2023/09/11 02:20:30;;;;;;;21.90;19.70;;;;;;;14.74;100.00;98987.02;109630;1251;64084;-69
2023/09/11 02:22:57;;;;;;;22.50;20.40;;;;;;;14.71;100.00;98983.85;109311;1251;59003;-70
2023/09/11 02:25:23;;;;;;;23.40;21.10;;;;;;;14.69;100.00;98985.45;109644;1251;59001;-70
2023/09/11 02:27:50;;;;;;;23.40;21.10;;;;;;;14.68;100.00;98985.94;109614;1250;64821;-69
2023/09/11 02:30:16;;;;;;;22.80;20.70;;;;;;;14.66;100.00;98985.36;109631;1250;59026;-69
2023/09/11 02:32:43;;;;;;;23.90;21.60;;;;;;;14.65;100.00;98986.35;109584;1250;62905;-69
2023/09/11 02:35:09;;;;;;;23.90;21.60;;;;;;;14.62;100.00;98986.04;109607;1251;59027;-69
2023/09/11 02:37:36;;;;;;;21.00;19.10;;;;;;;14.60;100.00;98984.49;109609;1250;58966;-69
2023/09/11 02:40:04;;;;;;;22.80;20.50;;;;;;;14.57;100.00;98986.28;109610;1250;66150;-69
2023/09/11 02:42:30;;;;;;;21.70;19.80;;;;;;;14.55;100.00;98988.64;109114;1251;59058;-70
2023/09/11 02:44:57;;;;;;;20.20;18.20;;;;;;;14.53;100.00;98985.56;109524;1251;63739;-69
2023/09/11 02:47:23;;;;;;;23.00;20.80;;;;;;;14.50;100.00;98985.06;109581;1250;58952;-70
2023/09/11 02:49:50;;;;;;;20.30;18.30;;;;;;;14.47;100.00;98983.88;109609;1250;59184;-69
2023/09/11 02:52:16;;;;;;;22.60;20.50;;;;;;;14.43;100.00;98981.00;109626;1250;59013;-69
2023/09/11 02:54:43;;;;;;;21.60;19.50;;;;;;;14.40;100.00;98980.38;109622;1250;60172;-70
2023/09/11 02:57:09;;;;;;;19.30;17.70;;;;;;;14.38;100.00;98979.69;109619;1250;62793;-69
2023/09/11 02:59:37;;;;;;;22.60;20.50;;;;;;;14.35;100.00;98983.12;109626;1251;58963;-69
2023/09/11 03:02:05;;;;;;;22.60;20.50;;;;;;;14.32;100.00;98982.46;109658;1251;59021;-69
2023/09/11 03:04:31;;;;;;;23.10;20.70;;;;;;;14.28;100.00;98982.61;109610;1250;64843;-70
2023/09/11 03:06:58;;;;;;;21.30;19.30;;;;;;;14.25;100.00;98984.31;109597;1250;59037;-69
2023/09/11 03:09:26;;;;;;;23.90;21.60;;;;;;;14.23;100.00;98985.35;109603;1250;59045;-70
2023/09/11 03:11:52;;;;;;;24.50;22.20;;;;;;;14.20;100.00;98983.23;109655;1250;59041;-70
2023/09/11 03:14:19;;;;;;;22.70;20.70;;;;;;;14.19;100.00;98983.55;109611;1250;58852;-69
2023/09/11 03:16:45;;;;;;;23.80;21.20;;;;;;;14.17;100.00;98985.48;109631;1250;59423;-69
2023/09/11 03:19:12;;;;;;;24.00;21.60;;;;;;;14.15;100.00;98987.80;109600;1250;59251;-69
2023/09/11 03:21:38;;;;;;;22.80;20.70;;;;;;;14.13;100.00;98989.94;109602;1250;64026;-70
2023/09/11 03:24:05;;;;;;;22.60;20.30;;;;;;;14.12;100.00;98992.55;109596;1250;58963;-68
2023/09/11 03:26:32;;;;;;;21.70;19.60;;;;;;;14.09;100.00;98989.72;109665;1250;58971;-68
2023/09/11 03:28:58;;;;;;;20.70;18.80;;;;;;;14.07;100.00;98990.80;109622;1250;66029;-68
2023/09/11 03:31:25;;;;;;;20.10;18.20;;;;;;;14.05;100.00;98991.09;109603;1250;58945;-67
2023/09/11 03:33:51;;;;;;;19.00;17.30;;;;;;;14.02;100.00;98987.59;109620;1250;59074;-70
2023/09/11 03:36:18;;;;;;;17.20;15.70;;;;;;;13.98;100.00;98983.64;109559;1250;58984;-67
2023/09/11 03:38:45;;;;;;;17.30;15.80;;;;;;;13.91;100.00;98982.63;109298;1251;59152;-68
2023/09/11 03:41:11;;;;;;;15.80;14.40;;;;;;;13.85;100.00;98983.46;109608;1250;64855;-67
2023/09/11 03:43:38;;;;;;;17.10;15.30;;;;;;;13.80;100.00;98982.94;109629;1250;59061;-69
2023/09/11 03:46:05;;;;;;;14.40;13.10;;;;;;;13.78;100.00;98982.93;109617;1250;64054;-68
2023/09/11 03:48:31;;;;;;;15.30;13.80;;;;;;;13.72;100.00;98980.05;109591;1250;58934;-68
2023/09/11 03:50:58;;;;;;;16.20;14.70;;;;;;;13.65;100.00;98981.10;109553;1250;58998;-68
2023/09/11 03:53:24;;;;;;;17.40;15.60;;;;;;;13.56;100.00;98977.89;109621;1250;66061;-69
2023/09/11 03:55:51;;;;;;;18.30;16.50;;;;;;;13.49;100.00;98975.23;109623;1250;60310;-68
2023/09/11 03:58:17;;;;;;;19.10;17.40;;;;;;;13.48;100.00;98973.34;109601;1251;64022;-69
2023/09/11 04:00:44;;;;;;;20.40;18.40;;;;;;;13.48;100.00;98969.05;109576;1250;58919;-68
2023/09/11 04:03:10;;;;;;;17.90;16.00;;;;;;;13.47;100.00;98964.91;109608;1250;59155;-67
2023/09/11 04:05:38;;;;;;;16.30;14.70;;;;;;;13.43;100.00;98963.95;109627;1251;65014;-68
2023/09/11 04:08:04;;;;;;;19.10;17.20;;;;;;;13.38;100.00;98960.92;109616;1250;59184;-68
2023/09/11 04:10:31;;;;;;;19.60;17.80;;;;;;;13.38;100.00;98958.30;109336;1251;65361;-69
2023/09/11 04:12:57;;;;;;;21.00;18.80;;;;;;;13.39;100.00;98958.51;109568;1250;58986;-69
2023/09/11 04:15:24;;;;;;;18.70;16.90;;;;;;;13.42;100.00;98956.34;109592;1250;59022;-69
2023/09/11 04:17:54;;;;;;;21.80;19.70;;;;;;;13.44;100.00;98954.42;109608;1250;66063;-69
2023/09/11 04:20:21;;;;;;;20.20;18.30;;;;;;;13.45;100.00;98952.89;109652;1250;58999;-69
2023/09/11 04:22:48;;;;;;;21.60;19.70;;;;;;;13.47;100.00;98951.29;109289;1250;62508;-69
2023/09/11 04:25:14;;;;;;;23.10;20.90;;;;;;;13.50;100.00;98952.51;109598;1251;59240;-69
2023/09/11 04:27:41;;;;;;;20.80;18.90;;;;;;;13.54;100.00;98955.39;109547;1250;58982;-69
2023/09/11 04:30:08;;;;;;;20.60;18.50;;;;;;;13.59;100.00;98957.27;109606;1250;59576;-68
2023/09/11 04:32:34;;;;;;;21.20;19.30;;;;;;;13.71;100.00;98960.13;109627;1251;60137;-68
2023/09/11 04:35:01;;;;;;;21.90;20.00;;;;;;;13.84;100.00;98961.16;109570;1250;64056;-69
2023/09/11 04:37:30;;;;;;;23.30;21.20;;;;;;;13.99;100.00;98959.80;109516;1251;59009;-69
2023/09/11 04:39:56;;;;;;;22.00;20.10;;;;;;;14.10;100.00;98956.95;109563;1252;58975;-69
2023/09/11 04:42:23;;;;;;;21.70;19.70;;;;;;;14.16;100.00;98954.46;109562;1253;66018;-69
2023/09/11 04:44:50;;;;;;;21.90;19.80;;;;;;;14.36;100.00;98956.40;109567;1252;58978;-69
2023/09/11 04:47:17;;;;;;;18.90;17.10;;;;;;;14.71;100.00;98950.45;109502;1252;62928;-69
2023/09/11 04:49:44;;;;;;;19.00;17.30;;;;;;;15.01;100.00;98949.68;109506;1253;58937;-69
2023/09/11 04:52:10;;;;;;;18.60;16.70;;;;;;;15.32;100.00;98948.06;109576;1252;59013;-69
2023/09/11 04:54:36;;;;;;;16.40;14.90;;;;;;;15.62;100.00;98948.09;109557;1251;58972;-69
2023/09/11 04:57:03;;;;;;;16.80;15.10;;;;;;;15.90;100.00;98951.44;109564;1252;60210;-69
2023/09/11 04:59:30;;;;;;;16.50;14.90;;;;;;;16.18;100.00;98950.84;109518;1252;64070;-69
2023/09/11 05:01:56;;;;;;;14.90;13.40;;;;;;;16.48;100.00;98953.88;109526;1252;58930;-69
2023/09/11 05:04:23;;;;;;;16.10;14.60;;;;;;;16.75;100.00;98952.27;109252;1252;59071;-69
2023/09/11 05:06:49;;;;;;;15.80;14.30;;;;;;;17.04;100.00;98951.70;109599;1253;58936;-69
2023/09/11 05:09:16;;;;;;;15.20;12.50;;;;;;;17.28;100.00;98949.56;109555;1251;59016;-70
2023/09/11 05:11:42;;;;;;;15.50;13.90;;;;;;;17.55;100.00;98946.29;109520;1252;58993;-69
2023/09/11 05:14:09;;;;;;;15.10;13.10;;;;;;;17.85;100.00;98944.49;109446;1253;59023;-69
2023/09/11 05:16:35;;;;;;;13.70;12.40;;;;;;;18.10;100.00;98943.20;109596;1252;58921;-70
2023/09/11 05:19:02;;;;;;;15.00;13.60;;;;;;;18.39;100.00;98943.66;109172;1253;59137;-69
2023/09/11 05:21:28;;;;;;;14.10;12.70;;;;;;;18.64;100.00;98943.45;109551;1252;59307;-69
2023/09/11 05:23:55;;;;;;;13.80;12.50;;;;;;;18.87;100.00;98943.81;109524;1254;62833;-69
2023/09/11 05:26:21;;;;;;;13.00;11.80;;;;;;;19.12;100.00;98944.88;109529;1251;59016;-70
2023/09/11 05:28:48;;;;;;;14.90;13.40;;;;;;;19.37;100.00;98947.89;109528;1253;59199;-69
2023/09/11 05:31:14;;;;;;;14.60;13.10;;;;;;;19.67;100.00;98946.20;109562;1252;65914;-70
2023/09/11 05:33:41;;;;;;;15.70;14.20;;;;;;;20.06;100.00;98943.68;109564;1252;60129;-70
2023/09/11 05:36:08;;;;;;;15.10;13.70;;;;;;;20.34;100.00;98944.70;109492;1254;64125;-70
2023/09/11 05:38:34;;;;;;;14.90;12.80;;;;;;;20.54;100.00;98948.20;109569;1252;59280;-69
2023/09/11 05:41:01;;;;;;;13.40;12.10;;;;;;;20.68;100.00;98952.33;109564;1253;59041;-69
2023/09/11 05:43:28;;;;;;;14.80;13.40;;;;;;;20.83;100.00;98952.30;109540;1252;59120;-70
2023/09/11 05:45:55;;;;;;;13.90;12.50;;;;;;;21.01;100.00;98952.15;109543;1252;59205;-70
2023/09/11 05:48:21;;;;;;;14.40;12.90;;;;;;;21.17;100.00;98951.75;109263;1254;62765;-70
2023/09/11 05:50:48;;;;;;;14.00;12.60;;;;;;;21.30;100.00;98952.85;109528;1253;58967;-70
2023/09/11 05:53:14;;;;;;;13.70;12.50;;;;;;;21.43;100.00;98951.60;109544;1251;58966;-70
2023/09/11 05:55:41;;;;;;;15.40;14.10;;;;;;;21.61;100.00;98949.80;109562;1253;59605;-70
2023/09/11 05:58:08;;;;;;;13.60;12.40;;;;;;;21.82;100.00;98948.42;109542;1253;60227;-70
2023/09/11 06:00:34;;;;;;;13.80;12.50;;;;;;;22.02;100.00;98947.79;109542;1253;62870;-70
2023/09/11 06:03:01;;;;;;;14.30;11.70;;;;;;;22.18;100.00;98947.92;109520;1252;58980;-70
2023/09/11 06:05:30;;;;;;;13.20;11.80;;;;;;;22.30;100.00;98946.17;109601;1251;59804;-70
2023/09/11 06:07:57;;;;;;;12.70;11.50;;;;;;;22.45;100.00;98943.71;109553;1252;64757;-70
2023/09/11 06:10:23;;;;;;;14.00;12.90;;;;;;;22.55;100.00;98947.20;109538;1251;60166;-70
2023/09/11 06:12:50;;;;;;;12.70;11.60;;;;;;;22.73;100.00;98943.84;109541;1252;60067;-70
2023/09/11 06:15:16;;;;;;;12.50;11.30;;;;;;;22.88;100.00;98941.75;109525;1252;58993;-70
2023/09/11 06:17:43;;;;;;;11.60;10.50;;;;;;;22.98;100.00;98938.35;109542;1252;58856;-70
2023/09/11 06:20:10;;;;;;;12.50;11.30;;;;;;;23.08;100.00;98940.31;109560;1252;59687;-70
2023/09/11 06:22:37;;;;;;;12.00;10.90;;;;;;;23.08;100.00;98940.82;109539;1251;60196;-70
2023/09/11 06:25:04;;;;;;;11.40;10.10;;;;;;;23.10;100.00;98939.31;109564;1253;62787;-70
2023/09/11 06:27:31;;;;;;;11.90;10.00;;;;;;;23.02;100.00;98939.92;109511;1253;59098;-70
2023/09/11 06:29:58;;;;;;;12.10;10.80;;;;;;;22.81;100.00;98938.02;109545;1253;59034;-70
2023/09/11 06:32:24;;;;;;;11.80;10.70;;;;;;;22.65;100.00;98937.76;109520;1253;67128;-70
2023/09/11 06:34:51;;;;;;;11.90;10.80;;;;;;;22.50;100.00;98936.60;109579;1253;59031;-70
2023/09/11 06:37:18;;;;;;;13.50;11.10;;;;;;;22.36;100.00;98932.63;109497;1252;64117;-69
2023/09/11 06:39:44;;;;;;;17.10;13.50;;;;;;;22.23;100.00;98931.09;109238;1253;58979;-70
2023/09/11 06:42:21;;;;;;;12.30;11.10;;;;;;;22.15;100.00;98932.91;109513;1251;58840;-70
2023/09/11 06:44:48;;;;;;;12.60;11.50;;;;;;;22.07;100.00;98935.95;109545;1251;66043;-70
2023/09/11 06:47:14;;;;;;;12.20;11.00;;;;;;;22.00;100.00;98939.70;109549;1252;60130;-70
2023/09/11 06:49:41;;;;;;;15.40;11.00;;;;;;;21.93;100.00;98940.11;109566;1251;64048;-68
2023/09/11 06:52:07;;;;;;;12.30;11.20;;;;;;;21.88;100.00;98940.16;109473;1252;151096;-68
2023/09/11 06:54:34;;;;;;;12.70;11.30;;;;;;;21.84;100.00;98938.11;109515;1252;59022;-68
2023/09/11 06:57:01;;;;;;;12.90;11.80;;;;;;;21.79;100.00;98938.89;109520;1253;66099;-69
2023/09/11 06:59:27;;;;;;;12.30;11.10;;;;;;;21.75;100.00;98937.67;109545;1253;59827;-68
2023/09/11 07:01:54;;;;;;;12.50;11.30;;;;;;;21.76;100.00;98935.46;109547;1252;59000;-68
2023/09/11 07:04:20;;;;;;;12.90;11.80;;;;;;;21.75;100.00;98938.44;109515;1252;59027;-68
2023/09/11 07:06:48;;;;;;;12.70;11.40;;;;;;;21.77;100.00;98937.42;109547;1252;58891;-68
2023/09/11 07:09:14;;;;;;;13.20;11.10;;;;;;;21.83;100.00;98936.35;109522;1252;66121;-69
2023/09/11 07:11:40;;;;;;;12.50;11.30;;;;;;;21.91;100.00;98934.73;109519;1254;60127;-69
2023/09/11 07:14:12;;;;;;;12.80;10.80;;;;;;;22.00;100.00;98935.83;109552;1251;59107;-69
2023/09/11 07:16:39;;;;;;;12.60;11.40;;;;;;;22.07;100.00;98938.71;109561;1254;59354;-69
2023/09/11 07:19:05;;;;;;;12.00;10.80;;;;;;;22.08;100.00;98937.52;109519;1252;59004;-69
2023/09/11 07:21:32;;;;;;;11.50;10.40;;;;;;;22.07;100.00;98936.88;109519;1251;65754;-69
2023/09/11 07:23:58;;;;;;;13.00;11.10;;;;;;;22.09;100.00;98935.20;109257;1254;60574;-69
2023/09/11 07:26:25;;;;;;;11.90;10.80;;;;;;;22.13;100.00;98937.27;109519;1252;62822;-69
2023/09/11 07:29:03;;;;;;;12.60;11.30;;;;;;;22.19;100.00;98934.60;109220;1254;59017;-69
2023/09/11 07:31:31;;;;;;;11.50;10.40;;;;;;;22.25;100.00;98932.59;109519;1253;58967;-69
2023/09/11 07:37:45;;;;;;;12.00;10.80;;;;;;;22.38;100.00;98928.79;109532;1251;59103;-69
2023/09/11 07:40:12;;;;;;;12.40;11.00;;;;;;;22.47;100.00;98926.79;109205;1254;64075;-69
2023/09/11 07:42:38;;;;;;;11.20;9.60;;;;;;;22.58;100.00;98925.48;109534;1252;58952;-69
2023/09/11 07:45:06;;;;;;;10.90;9.20;;;;;;;22.69;100.00;98924.21;109540;1252;59520;-69
2023/09/11 07:47:32;;;;;;;10.90;9.60;;;;;;;22.79;100.00;98923.63;109586;1253;64819;-70
2023/09/11 07:49:59;;;;;;;12.20;9.70;;;;;;;22.87;100.00;98918.96;109529;1251;58910;-70
2023/09/11 07:52:26;;;;;;;13.20;9.90;;;;;;;22.94;100.00;98918.73;109524;1252;62641;-69
2023/09/11 07:54:52;;;;;;;11.00;9.00;;;;;;;23.06;100.00;98921.61;109541;1251;58954;-69
2023/09/11 07:57:19;;;;;;;10.80;9.90;;;;;;;23.20;100.00;98923.83;109569;1253;58961;-70
2023/09/11 07:59:45;;;;;;;9.80;8.80;;;;;;;23.31;100.00;98920.85;109512;1252;59009;-70
2023/09/11 08:02:12;;;;;;;13.60;9.70;;;;;;;23.43;100.00;98921.08;109223;1254;69184;-69
2023/09/11 08:04:39;;;;;;;15.70;9.80;;;;;;;23.55;100.00;98917.15;109547;1252;64205;-70
2023/09/11 08:07:05;;;;;;;10.40;8.80;;;;;;;23.65;100.00;98915.94;109537;1253;59023;-70
2023/09/11 08:09:32;;;;;;;10.90;9.00;;;;;;;23.73;100.00;98916.23;109547;1253;58939;-70
2023/09/11 08:12:00;;;;;;;11.80;9.30;;;;;;;23.83;100.00;98918.84;109570;1251;65997;-70
2023/09/11 08:14:26;;;;;;;12.10;8.80;;;;;;;23.91;100.00;98918.36;109557;1253;59495;-70
2023/09/11 08:16:53;;;;;;;11.60;8.70;;;;;;;24.02;100.00;98917.95;109521;1253;64085;-70
2023/09/11 08:19:19;;;;;;;11.80;9.30;;;;;;;24.12;100.00;98919.20;109512;1253;58913;-70
2023/09/11 08:21:46;;;;;;;11.30;9.00;;;;;;;24.21;100.00;98915.86;109496;1253;59070;-70
2023/09/11 08:24:13;;;;;;;13.70;8.20;;;;;;;24.31;100.00;98917.14;109236;1254;65810;-70
2023/09/11 08:26:39;;;;;;;11.30;9.30;;;;;;;24.40;100.00;98920.21;109605;1251;59997;-70
2023/09/11 08:29:06;;;;;;;14.80;9.90;;;;;;;24.49;100.00;98920.59;109235;1254;63071;-69
2023/09/11 08:31:33;;;;;;;14.40;9.00;;;;;;;24.58;100.00;98917.28;109482;1252;59044;-70
2023/09/11 08:33:59;;;;;;;11.90;8.30;;;;;;;24.66;100.00;98918.04;109284;1252;59139;-69
2023/09/11 08:36:26;;;;;;;9.50;8.30;;;;;;;24.70;100.00;98917.70;109531;1253;59108;-70
2023/09/11 08:38:53;;;;;;;9.40;8.10;;;;;;;24.78;100.00;98922.42;109309;1254;59908;-69
2023/09/11 08:41:25;;;;;;;10.90;8.60;;;;;;;24.82;100.00;98922.92;109563;1253;63745;-69
2023/09/11 08:43:52;;;;;;;11.50;7.80;;;;;;;24.85;100.00;98919.43;109472;1254;59101;-69
2023/09/11 08:46:21;;;;;;;9.90;8.60;;;;;;;24.87;100.00;98916.98;109522;1254;58860;-70
2023/09/11 08:48:49;;;;;;;8.70;7.90;;;;;;;24.91;100.00;98916.41;109536;1252;66959;-70
2023/09/11 08:51:24;;;;;;;10.10;8.80;;;;;;;24.95;100.00;98916.45;109527;1254;59016;-70
2023/09/11 08:53:52;;;;;;;8.40;7.60;;;;;;;25.06;100.00;98914.95;109380;1254;62919;-70
2023/09/11 08:56:19;;;;;;;8.10;6.90;;;;;;;25.19;100.00;98915.52;109249;1253;59071;-70
2023/09/11 08:58:49;;;;;;;7.90;7.20;;;;;;;25.29;100.00;98919.23;109535;1252;58955;-70
2023/09/11 09:01:17;;;;;;;8.30;7.50;;;;;;;25.34;100.00;98921.51;109563;1253;65852;-70
2023/09/11 09:03:45;;;;;;;8.20;7.40;;;;;;;25.37;100.00;98916.74;109550;1252;59828;-70
2023/09/11 09:06:12;;;;;;;9.70;7.50;;;;;;;25.42;100.00;98913.34;109584;1253;63753;-70
2023/09/11 09:08:39;;;;;;;10.30;8.80;;;;;;;25.51;100.00;98913.86;109556;1252;58985;-70
2023/09/11 09:11:06;;;;;;;8.10;7.40;;;;;;;25.57;100.00;98912.84;109219;1252;59390;-70
2023/09/11 09:13:36;;;;;;;8.70;7.60;;;;;;;25.65;100.00;98906.53;109522;1252;67372;-70
2023/09/11 09:16:03;;;;;;;10.80;7.90;;;;;;;25.77;100.00;98907.10;109558;1251;59988;-70
2023/09/11 09:18:30;;;;;;;9.00;8.10;;;;;;;25.89;100.00;98904.11;109201;1254;64030;-69
2023/09/11 09:20:56;;;;;;;7.90;7.20;;;;;;;26.00;100.00;98906.02;109533;1252;59134;-70
2023/09/11 09:23:35;;;;;;;9.10;8.20;;;;;;;26.08;100.00;98904.86;109240;1253;59115;-70
2023/09/11 09:26:09;;;;;;;9.60;8.20;;;;;;;26.18;100.00;98905.91;109529;1252;64854;-70
2023/09/11 09:28:51;;;;;;;10.70;8.40;;;;;;;26.20;100.00;98905.67;109540;1252;59077;-70
2023/09/11 09:31:25;;;;;;;8.80;7.90;;;;;;;26.28;100.00;98904.64;109471;1252;62849;-70
2023/09/11 09:33:53;;;;;;;9.30;7.60;;;;;;;26.38;100.00;98899.23;109524;1252;58957;-69
2023/09/11 09:36:20;;;;;;;11.10;7.40;;;;;;;26.46;100.00;98898.07;109529;1253;59027;-70
2023/09/11 09:38:47;;;;;;;8.70;7.90;;;;;;;26.55;100.00;98897.48;109526;1254;67312;-70
2023/09/11 09:41:14;;;;;;;9.40;8.20;;;;;;;26.62;100.00;98894.89;109544;1252;58983;-70
2023/09/11 09:43:50;;;;;;;8.60;7.70;;;;;;;26.69;100.00;98891.40;109540;1252;63750;-70
2023/09/11 09:46:18;;;;;;;8.10;7.20;;;;;;;26.80;100.00;98891.36;109463;1254;59065;-70
2023/09/11 09:48:45;;;;;;;8.90;7.70;;;;;;;26.88;100.00;98890.86;109524;1255;58924;-70
2023/09/11 09:51:11;;;;;;;9.30;7.60;;;;;;;26.92;100.00;98888.08;109547;1252;64829;-70
2023/09/11 09:53:41;;;;;;;8.40;7.60;;;;;;;26.92;100.00;98887.91;109578;1252;60187;-70
2023/09/11 09:56:08;;;;;;;;;;;;;;;27.02;100.00;98887.86;109224;1254;63634;-70
2023/09/11 09:58:37;;;;;;;9.70;7.30;;;;;;;27.10;100.00;98882.55;109521;1254;59083;-70
2023/09/11 10:01:09;;;;;;;8.30;7.20;;;;;;;27.17;100.00;98881.64;109209;1251;58997;-70
2023/09/11 10:03:39;;;;;;;8.60;7.60;;;;;;;27.24;100.00;98875.59;109552;1255;65768;-69
2023/09/11 10:06:07;;;;;;;8.00;6.90;;;;;;;27.28;100.00;98878.65;109532;1252;61106;-69
2023/09/11 10:08:34;;;;;;;7.60;7.00;;;;;;;27.31;100.00;98877.02;109212;1254;65207;-69
2023/09/11 10:11:01;;;;;;;8.10;7.40;;;;;;;27.37;100.00;98874.42;109516;1254;58995;-69
2023/09/11 10:13:31;;;;;;;9.90;7.90;;;;;;;27.45;100.00;98866.02;109554;1253;58951;-70
2023/09/11 10:15:59;;;;;;;8.00;7.20;;;;;;;27.53;100.00;98866.33;109482;1253;64506;-69
2023/09/11 10:18:29;;;;;;;8.30;7.40;;;;;;;27.60;100.00;98861.00;109505;1254;59853;-70
2023/09/11 10:20:57;;;;;;;11.60;7.50;;;;;;;27.64;100.00;98861.86;109507;1254;62611;-70
2023/09/11 10:23:24;;;;;;;9.00;7.10;;;;;;;27.68;100.00;98861.30;109494;1252;59031;-70
2023/09/11 10:25:57;;;;;;;7.80;6.70;;;;;;;27.75;100.00;98857.73;109580;1251;58968;-70
2023/09/11 10:28:31;;;;;;;9.10;6.40;;;;;;;27.79;100.00;98852.46;109529;1252;65816;-70
2023/09/11 10:31:07;;;;;;;7.50;6.80;;;;;;;27.83;100.00;98850.82;109569;1254;60163;-70
2023/09/11 10:33:35;;;;;;;8.10;7.10;;;;;;;27.86;100.00;98848.04;109548;1253;64075;-70
2023/09/11 10:36:07;;;;;;;9.00;6.80;;;;;;;27.89;100.00;98843.72;109196;1251;59121;-70
2023/09/11 10:38:36;;;;;;;7.20;6.50;;;;;;;27.92;100.00;98841.17;109579;1255;58964;-70
2023/09/11 10:41:05;;;;;;;9.20;6.60;;;;;;;28.01;100.00;98837.30;109524;1252;66152;-70
2023/09/11 10:43:32;;;;;;;7.40;6.70;;;;;;;28.12;100.00;98831.58;109509;1252;60214;-70
2023/09/11 10:46:31;;;;;;;7.90;6.90;;;;;;;28.17;100.00;98832.65;109532;1252;63266;-70
2023/09/11 10:48:59;;;;;;;7.20;6.50;;;;;;;28.18;100.00;98829.18;109520;1252;59010;-69
2023/09/11 10:51:29;;;;;;;8.20;6.90;;;;;;;28.21;100.00;98833.33;109498;1255;58864;-69
2023/09/11 10:53:56;;;;;;;;;;;;;;;28.24;100.00;98830.54;109589;1253;64802;-69
2023/09/11 10:56:23;;;;;;;6.60;6.00;;;;;;;28.28;100.00;98831.02;109562;1253;60280;-70
2023/09/11 10:58:52;;;;;;;7.30;6.60;;;;;;;28.34;100.00;98832.41;109572;1253;64347;-70
2023/09/11 11:01:19;;;;;;;7.40;6.70;;;;;;;28.35;100.00;98828.78;109209;1253;59042;-70
2023/09/11 11:03:45;;;;;;;7.60;6.90;;;;;;;28.41;100.00;98830.50;109571;1252;59121;-70
2023/09/11 11:06:17;;;;;;;7.00;6.30;;;;;;;28.49;100.00;98829.16;109522;1254;64882;-70
2023/09/11 11:08:45;;;;;;;8.00;6.60;;;;;;;28.57;100.00;98827.79;109209;1254;59123;-70
2023/09/11 11:11:22;;;;;;;7.00;6.40;;;;;;;28.63;100.00;98825.25;109543;1254;64066;-70
2023/09/11 11:14:17;;;;;;;8.60;7.60;;;;;;;28.65;100.00;98822.52;109526;1253;59014;-70